sensor_id;sensor_type;location;lat;lon;timestamp;P1;durP1;ratioP1;P2;durP2;ratioP2
76725;SDS011;65651;53.154;17.916;2023-07-08T00:01:16;3.90;;;2.60;;
76725;SDS011;65651;53.154;17.916;2023-07-08T00:03:46;3.80;;;2.20;;
76725;SDS011;65651;53.154;17.916;2023-07-08T00:06:25;4.20;;;2.40;;
76725;SDS011;65651;53.154;17.916;2023-07-08T00:08:54;4.80;;;2.10;;
76725;SDS011;65651;53.154;17.916;2023-07-08T00:11:22;4.40;;;2.70;;
76725;SDS011;65651;53.154;17.916;2023-07-08T00:13:50;4.70;;;2.30;;
76725;SDS011;65651;53.154;17.916;2023-07-08T00:16:18;3.40;;;2.50;;
76725;SDS011;65651;53.154;17.916;2023-07-08T00:18:46;3.70;;;2.10;;
76725;SDS011;65651;53.154;17.916;2023-07-08T00:21:15;5.50;;;2.60;;
76725;SDS011;65651;53.154;17.916;2023-07-08T00:23:44;6.30;;;2.40;;
76725;SDS011;65651;53.154;17.916;2023-07-08T00:26:21;4.30;;;1.90;;
76725;SDS011;65651;53.154;17.916;2023-07-08T00:28:54;5.70;;;2.30;;
76725;SDS011;65651;53.154;17.916;2023-07-08T00:31:22;3.90;;;2.70;;
76725;SDS011;65651;53.154;17.916;2023-07-08T00:33:55;4.10;;;2.30;;
76725;SDS011;65651;53.154;17.916;2023-07-08T00:36:23;3.30;;;2.30;;
76725;SDS011;65651;53.154;17.916;2023-07-08T00:38:53;3.50;;;2.20;;
76725;SDS011;65651;53.154;17.916;2023-07-08T00:41:25;3.30;;;2.60;;
76725;SDS011;65651;53.154;17.916;2023-07-08T00:44:02;4.10;;;2.50;;
76725;SDS011;65651;53.154;17.916;2023-07-08T00:51:35;4.40;;;2.50;;
76725;SDS011;65651;53.154;17.916;2023-07-08T00:54:17;5.40;;;2.70;;
76725;SDS011;65651;53.154;17.916;2023-07-08T00:57:06;3.80;;;2.80;;
76725;SDS011;65651;53.154;17.916;2023-07-08T00:59:34;3.80;;;2.20;;
76725;SDS011;65651;53.154;17.916;2023-07-08T01:02:09;4.10;;;2.60;;
76725;SDS011;65651;53.154;17.916;2023-07-08T01:04:50;4.20;;;2.50;;
76725;SDS011;65651;53.154;17.916;2023-07-08T01:07:22;4.80;;;2.10;;
76725;SDS011;65651;53.154;17.916;2023-07-08T01:09:58;3.60;;;1.90;;
76725;SDS011;65651;53.154;17.916;2023-07-08T01:12:31;7.30;;;2.60;;
76725;SDS011;65651;53.154;17.916;2023-07-08T01:15:03;5.70;;;1.90;;
76725;SDS011;65651;53.154;17.916;2023-07-08T01:17:33;3.20;;;2.50;;
76725;SDS011;65651;53.154;17.916;2023-07-08T01:20:03;5.20;;;2.50;;
76725;SDS011;65651;53.154;17.916;2023-07-08T01:22:42;5.00;;;2.30;;
76725;SDS011;65651;53.154;17.916;2023-07-08T01:25:10;3.30;;;2.20;;
76725;SDS011;65651;53.154;17.916;2023-07-08T01:27:41;4.50;;;2.30;;
76725;SDS011;65651;53.154;17.916;2023-07-08T01:30:12;3.80;;;2.20;;
76725;SDS011;65651;53.154;17.916;2023-07-08T01:32:43;4.60;;;2.10;;
76725;SDS011;65651;53.154;17.916;2023-07-08T01:35:15;7.10;;;2.90;;
76725;SDS011;65651;53.154;17.916;2023-07-08T01:38:02;2.70;;;2.30;;
76725;SDS011;65651;53.154;17.916;2023-07-08T01:40:33;3.30;;;2.60;;
76725;SDS011;65651;53.154;17.916;2023-07-08T01:43:04;3.10;;;2.10;;
76725;SDS011;65651;53.154;17.916;2023-07-08T01:45:34;4.90;;;2.60;;
76725;SDS011;65651;53.154;17.916;2023-07-08T01:48:13;3.60;;;2.40;;
76725;SDS011;65651;53.154;17.916;2023-07-08T01:50:45;4.80;;;2.70;;
76725;SDS011;65651;53.154;17.916;2023-07-08T01:53:15;8.10;;;3.00;;
76725;SDS011;65651;53.154;17.916;2023-07-08T01:55:45;4.80;;;3.10;;
76725;SDS011;65651;53.154;17.916;2023-07-08T01:58:15;4.20;;;2.40;;
76725;SDS011;65651;53.154;17.916;2023-07-08T02:00:42;4.20;;;2.70;;
76725;SDS011;65651;53.154;17.916;2023-07-08T02:03:10;3.60;;;2.60;;
76725;SDS011;65651;53.154;17.916;2023-07-08T02:05:37;3.50;;;2.30;;
76725;SDS011;65651;53.154;17.916;2023-07-08T02:08:05;3.50;;;2.10;;
76725;SDS011;65651;53.154;17.916;2023-07-08T02:10:36;5.30;;;2.60;;
76725;SDS011;65651;53.154;17.916;2023-07-08T02:13:05;3.60;;;2.40;;
76725;SDS011;65651;53.154;17.916;2023-07-08T02:15:33;5.00;;;2.90;;
76725;SDS011;65651;53.154;17.916;2023-07-08T02:18:00;3.70;;;2.90;;
76725;SDS011;65651;53.154;17.916;2023-07-08T02:20:28;4.20;;;2.80;;
76725;SDS011;65651;53.154;17.916;2023-07-08T02:22:56;5.70;;;2.50;;
76725;SDS011;65651;53.154;17.916;2023-07-08T02:25:23;6.20;;;2.50;;
76725;SDS011;65651;53.154;17.916;2023-07-08T02:27:51;5.80;;;3.20;;
76725;SDS011;65651;53.154;17.916;2023-07-08T02:30:21;5.30;;;2.50;;
76725;SDS011;65651;53.154;17.916;2023-07-08T02:32:48;4.50;;;2.60;;
76725;SDS011;65651;53.154;17.916;2023-07-08T02:35:30;5.20;;;2.80;;
76725;SDS011;65651;53.154;17.916;2023-07-08T02:37:57;5.00;;;2.60;;
76725;SDS011;65651;53.154;17.916;2023-07-08T02:40:25;5.70;;;3.10;;
76725;SDS011;65651;53.154;17.916;2023-07-08T02:42:52;5.40;;;3.30;;
76725;SDS011;65651;53.154;17.916;2023-07-08T02:45:20;3.60;;;3.00;;
76725;SDS011;65651;53.154;17.916;2023-07-08T02:47:47;4.10;;;2.70;;
76725;SDS011;65651;53.154;17.916;2023-07-08T02:50:14;4.20;;;2.10;;
76725;SDS011;65651;53.154;17.916;2023-07-08T02:52:44;8.20;;;2.90;;
76725;SDS011;65651;53.154;17.916;2023-07-08T02:55:11;4.30;;;2.30;;
76725;SDS011;65651;53.154;17.916;2023-07-08T02:57:39;4.00;;;2.80;;
76725;SDS011;65651;53.154;17.916;2023-07-08T03:00:06;3.80;;;2.70;;
76725;SDS011;65651;53.154;17.916;2023-07-08T03:02:34;4.60;;;2.80;;
76725;SDS011;65651;53.154;17.916;2023-07-08T03:05:01;4.60;;;2.60;;
76725;SDS011;65651;53.154;17.916;2023-07-08T03:07:32;4.60;;;2.50;;
76725;SDS011;65651;53.154;17.916;2023-07-08T03:09:59;3.70;;;2.60;;
76725;SDS011;65651;53.154;17.916;2023-07-08T03:12:27;6.00;;;2.70;;
76725;SDS011;65651;53.154;17.916;2023-07-08T03:14:54;5.10;;;2.90;;
76725;SDS011;65651;53.154;17.916;2023-07-08T03:17:22;4.90;;;2.40;;
76725;SDS011;65651;53.154;17.916;2023-07-08T03:19:50;6.50;;;2.90;;
76725;SDS011;65651;53.154;17.916;2023-07-08T03:22:17;6.50;;;3.30;;
76725;SDS011;65651;53.154;17.916;2023-07-08T03:24:48;5.60;;;2.70;;
76725;SDS011;65651;53.154;17.916;2023-07-08T03:27:18;4.20;;;2.30;;
76725;SDS011;65651;53.154;17.916;2023-07-08T03:29:49;3.80;;;2.50;;
76725;SDS011;65651;53.154;17.916;2023-07-08T03:32:17;4.90;;;2.80;;
76725;SDS011;65651;53.154;17.916;2023-07-08T03:34:44;4.60;;;2.80;;
76725;SDS011;65651;53.154;17.916;2023-07-08T03:37:11;8.40;;;2.80;;
76725;SDS011;65651;53.154;17.916;2023-07-08T03:39:39;4.90;;;3.00;;
76725;SDS011;65651;53.154;17.916;2023-07-08T03:42:06;4.60;;;2.80;;
76725;SDS011;65651;53.154;17.916;2023-07-08T03:44:36;3.80;;;3.20;;
76725;SDS011;65651;53.154;17.916;2023-07-08T03:47:03;5.90;;;3.10;;
76725;SDS011;65651;53.154;17.916;2023-07-08T03:49:31;4.50;;;2.90;;
76725;SDS011;65651;53.154;17.916;2023-07-08T03:51:58;3.80;;;2.70;;
76725;SDS011;65651;53.154;17.916;2023-07-08T03:54:25;5.70;;;3.20;;
76725;SDS011;65651;53.154;17.916;2023-07-08T03:56:57;5.40;;;3.40;;
76725;SDS011;65651;53.154;17.916;2023-07-08T03:59:25;6.70;;;3.60;;
76725;SDS011;65651;53.154;17.916;2023-07-08T04:01:54;4.50;;;3.40;;
76725;SDS011;65651;53.154;17.916;2023-07-08T04:04:23;7.80;;;3.90;;
76725;SDS011;65651;53.154;17.916;2023-07-08T04:06:51;6.70;;;3.10;;
76725;SDS011;65651;53.154;17.916;2023-07-08T04:09:22;9.20;;;3.30;;
76725;SDS011;65651;53.154;17.916;2023-07-08T04:11:49;5.90;;;2.90;;
76725;SDS011;65651;53.154;17.916;2023-07-08T04:14:16;5.70;;;3.30;;
76725;SDS011;65651;53.154;17.916;2023-07-08T04:16:50;9.70;;;4.10;;
76725;SDS011;65651;53.154;17.916;2023-07-08T04:19:20;6.00;;;3.60;;
76725;SDS011;65651;53.154;17.916;2023-07-08T04:21:49;5.20;;;3.40;;
76725;SDS011;65651;53.154;17.916;2023-07-08T04:24:17;8.80;;;4.00;;
76725;SDS011;65651;53.154;17.916;2023-07-08T04:26:45;6.20;;;3.70;;
76725;SDS011;65651;53.154;17.916;2023-07-08T04:29:16;5.30;;;3.70;;
76725;SDS011;65651;53.154;17.916;2023-07-08T04:31:45;7.70;;;4.10;;
76725;SDS011;65651;53.154;17.916;2023-07-08T04:34:14;11.00;;;4.40;;
76725;SDS011;65651;53.154;17.916;2023-07-08T04:36:43;6.10;;;3.90;;
76725;SDS011;65651;53.154;17.916;2023-07-08T04:39:11;8.10;;;3.60;;
76725;SDS011;65651;53.154;17.916;2023-07-08T04:41:39;8.20;;;4.20;;
76725;SDS011;65651;53.154;17.916;2023-07-08T04:44:07;7.30;;;4.00;;
76725;SDS011;65651;53.154;17.916;2023-07-08T04:46:40;9.20;;;5.40;;
76725;SDS011;65651;53.154;17.916;2023-07-08T04:49:11;6.10;;;4.30;;
76725;SDS011;65651;53.154;17.916;2023-07-08T04:51:40;6.00;;;3.60;;
76725;SDS011;65651;53.154;17.916;2023-07-08T04:54:08;7.60;;;3.70;;
76725;SDS011;65651;53.154;17.916;2023-07-08T04:56:38;8.00;;;4.00;;
76725;SDS011;65651;53.154;17.916;2023-07-08T04:59:08;6.00;;;3.70;;
76725;SDS011;65651;53.154;17.916;2023-07-08T05:01:38;5.50;;;3.70;;
76725;SDS011;65651;53.154;17.916;2023-07-08T05:04:07;4.90;;;3.70;;
76725;SDS011;65651;53.154;17.916;2023-07-08T05:06:37;5.50;;;4.00;;
76725;SDS011;65651;53.154;17.916;2023-07-08T05:09:05;7.20;;;3.70;;
76725;SDS011;65651;53.154;17.916;2023-07-08T05:11:33;5.20;;;4.10;;
76725;SDS011;65651;53.154;17.916;2023-07-08T05:14:01;6.30;;;4.00;;
76725;SDS011;65651;53.154;17.916;2023-07-08T05:16:32;6.20;;;4.30;;
76725;SDS011;65651;53.154;17.916;2023-07-08T05:19:01;8.00;;;4.10;;
76725;SDS011;65651;53.154;17.916;2023-07-08T05:21:29;6.00;;;4.60;;
76725;SDS011;65651;53.154;17.916;2023-07-08T05:24:01;8.90;;;5.50;;
76725;SDS011;65651;53.154;17.916;2023-07-08T05:26:29;7.60;;;4.40;;
76725;SDS011;65651;53.154;17.916;2023-07-08T05:28:57;5.40;;;4.30;;
76725;SDS011;65651;53.154;17.916;2023-07-08T05:31:24;5.70;;;4.30;;
76725;SDS011;65651;53.154;17.916;2023-07-08T05:33:52;6.90;;;3.40;;
76725;SDS011;65651;53.154;17.916;2023-07-08T05:36:19;4.10;;;3.30;;
76725;SDS011;65651;53.154;17.916;2023-07-08T05:38:46;5.40;;;3.50;;
76725;SDS011;65651;53.154;17.916;2023-07-08T05:41:13;4.30;;;3.10;;
76725;SDS011;65651;53.154;17.916;2023-07-08T05:43:41;5.90;;;3.70;;
76725;SDS011;65651;53.154;17.916;2023-07-08T05:46:08;8.70;;;3.50;;
76725;SDS011;65651;53.154;17.916;2023-07-08T05:48:35;4.10;;;3.70;;
76725;SDS011;65651;53.154;17.916;2023-07-08T05:51:03;7.00;;;3.40;;
76725;SDS011;65651;53.154;17.916;2023-07-08T05:53:31;5.90;;;3.20;;
76725;SDS011;65651;53.154;17.916;2023-07-08T05:55:58;5.40;;;3.90;;
76725;SDS011;65651;53.154;17.916;2023-07-08T05:58:25;5.40;;;3.70;;
76725;SDS011;65651;53.154;17.916;2023-07-08T06:00:56;6.60;;;3.80;;
76725;SDS011;65651;53.154;17.916;2023-07-08T06:03:24;3.60;;;3.30;;
76725;SDS011;65651;53.154;17.916;2023-07-08T06:05:52;4.60;;;3.30;;
76725;SDS011;65651;53.154;17.916;2023-07-08T06:08:19;5.10;;;3.40;;
76725;SDS011;65651;53.154;17.916;2023-07-08T06:10:47;4.80;;;3.30;;
76725;SDS011;65651;53.154;17.916;2023-07-08T06:13:16;8.70;;;3.00;;
76725;SDS011;65651;53.154;17.916;2023-07-08T06:15:43;6.00;;;3.50;;
76725;SDS011;65651;53.154;17.916;2023-07-08T06:18:10;6.30;;;3.20;;
76725;SDS011;65651;53.154;17.916;2023-07-08T06:20:38;4.90;;;3.10;;
76725;SDS011;65651;53.154;17.916;2023-07-08T06:23:05;6.40;;;3.00;;
76725;SDS011;65651;53.154;17.916;2023-07-08T06:25:33;4.20;;;3.00;;
76725;SDS011;65651;53.154;17.916;2023-07-08T06:28:01;5.70;;;2.70;;
76725;SDS011;65651;53.154;17.916;2023-07-08T06:30:28;5.50;;;2.80;;
76725;SDS011;65651;53.154;17.916;2023-07-08T06:32:55;7.20;;;2.80;;
76725;SDS011;65651;53.154;17.916;2023-07-08T06:35:23;4.00;;;2.80;;
76725;SDS011;65651;53.154;17.916;2023-07-08T06:37:50;6.40;;;2.80;;
76725;SDS011;65651;53.154;17.916;2023-07-08T06:40:17;5.50;;;3.40;;
76725;SDS011;65651;53.154;17.916;2023-07-08T06:42:46;9.90;;;3.30;;
76725;SDS011;65651;53.154;17.916;2023-07-08T06:45:37;4.00;;;2.90;;
76725;SDS011;65651;53.154;17.916;2023-07-08T06:48:05;3.30;;;2.40;;
76725;SDS011;65651;53.154;17.916;2023-07-08T06:50:32;4.10;;;2.50;;
76725;SDS011;65651;53.154;17.916;2023-07-08T06:53:00;4.70;;;2.40;;
76725;SDS011;65651;53.154;17.916;2023-07-08T06:55:27;3.90;;;3.50;;
76725;SDS011;65651;53.154;17.916;2023-07-08T06:57:56;5.50;;;3.60;;
76725;SDS011;65651;53.154;17.916;2023-07-08T07:00:24;5.30;;;3.20;;
76725;SDS011;65651;53.154;17.916;2023-07-08T07:02:51;5.90;;;3.00;;
76725;SDS011;65651;53.154;17.916;2023-07-08T07:05:18;4.00;;;2.70;;
76725;SDS011;65651;53.154;17.916;2023-07-08T07:07:46;4.40;;;2.70;;
76725;SDS011;65651;53.154;17.916;2023-07-08T07:10:13;3.70;;;2.50;;
76725;SDS011;65651;53.154;17.916;2023-07-08T07:12:42;6.00;;;2.80;;
76725;SDS011;65651;53.154;17.916;2023-07-08T07:15:12;3.10;;;2.60;;
76725;SDS011;65651;53.154;17.916;2023-07-08T07:17:39;4.70;;;2.50;;
76725;SDS011;65651;53.154;17.916;2023-07-08T07:20:07;5.80;;;2.70;;
76725;SDS011;65651;53.154;17.916;2023-07-08T07:22:35;3.50;;;2.50;;
76725;SDS011;65651;53.154;17.916;2023-07-08T07:25:03;4.30;;;2.80;;
76725;SDS011;65651;53.154;17.916;2023-07-08T07:27:31;2.70;;;1.80;;
76725;SDS011;65651;53.154;17.916;2023-07-08T07:29:58;4.00;;;2.30;;
76725;SDS011;65651;53.154;17.916;2023-07-08T07:32:28;4.10;;;2.40;;
76725;SDS011;65651;53.154;17.916;2023-07-08T07:34:56;3.70;;;2.50;;
76725;SDS011;65651;53.154;17.916;2023-07-08T07:37:24;3.30;;;2.30;;
76725;SDS011;65651;53.154;17.916;2023-07-08T07:39:52;4.60;;;2.30;;
76725;SDS011;65651;53.154;17.916;2023-07-08T07:42:19;4.50;;;2.20;;
76725;SDS011;65651;53.154;17.916;2023-07-08T07:44:46;5.50;;;2.40;;
76725;SDS011;65651;53.154;17.916;2023-07-08T07:47:14;4.70;;;2.70;;
76725;SDS011;65651;53.154;17.916;2023-07-08T07:49:42;3.50;;;2.40;;
76725;SDS011;65651;53.154;17.916;2023-07-08T07:52:09;2.60;;;2.00;;
76725;SDS011;65651;53.154;17.916;2023-07-08T07:54:40;3.10;;;2.50;;
76725;SDS011;65651;53.154;17.916;2023-07-08T07:57:07;2.60;;;2.30;;
76725;SDS011;65651;53.154;17.916;2023-07-08T07:59:34;5.60;;;2.40;;
76725;SDS011;65651;53.154;17.916;2023-07-08T08:02:02;2.30;;;2.10;;
76725;SDS011;65651;53.154;17.916;2023-07-08T08:04:30;3.10;;;2.50;;
76725;SDS011;65651;53.154;17.916;2023-07-08T08:06:57;2.40;;;1.70;;
76725;SDS011;65651;53.154;17.916;2023-07-08T08:09:25;2.80;;;2.10;;
76725;SDS011;65651;53.154;17.916;2023-07-08T08:11:54;2.70;;;2.00;;
76725;SDS011;65651;53.154;17.916;2023-07-08T08:14:22;2.90;;;1.70;;
76725;SDS011;65651;53.154;17.916;2023-07-08T08:16:50;3.30;;;1.60;;
76725;SDS011;65651;53.154;17.916;2023-07-08T08:19:17;3.00;;;1.70;;
76725;SDS011;65651;53.154;17.916;2023-07-08T08:21:45;2.50;;;1.80;;
76725;SDS011;65651;53.154;17.916;2023-07-08T08:24:12;3.70;;;2.00;;
76725;SDS011;65651;53.154;17.916;2023-07-08T08:26:42;2.50;;;2.10;;
76725;SDS011;65651;53.154;17.916;2023-07-08T08:29:10;3.30;;;1.90;;
76725;SDS011;65651;53.154;17.916;2023-07-08T08:31:37;3.60;;;1.70;;
76725;SDS011;65651;53.154;17.916;2023-07-08T08:34:05;4.20;;;1.80;;
76725;SDS011;65651;53.154;17.916;2023-07-08T08:36:33;2.30;;;2.00;;
76725;SDS011;65651;53.154;17.916;2023-07-08T08:39:00;4.00;;;1.90;;
76725;SDS011;65651;53.154;17.916;2023-07-08T08:41:31;2.10;;;1.60;;
76725;SDS011;65651;53.154;17.916;2023-07-08T08:44:01;13.60;;;2.30;;
76725;SDS011;65651;53.154;17.916;2023-07-08T08:46:38;2.60;;;1.90;;
76725;SDS011;65651;53.154;17.916;2023-07-08T08:52:01;2.00;;;1.40;;
76725;SDS011;65651;53.154;17.916;2023-07-08T08:54:29;2.60;;;2.10;;
76725;SDS011;65651;53.154;17.916;2023-07-08T08:59:44;4.00;;;1.90;;
76725;SDS011;65651;53.154;17.916;2023-07-08T09:05:05;3.10;;;1.80;;
76725;SDS011;65651;53.154;17.916;2023-07-08T09:13:32;2.50;;;1.80;;
76725;SDS011;65651;53.154;17.916;2023-07-08T09:16:06;2.80;;;1.60;;
76725;SDS011;65651;53.154;17.916;2023-07-08T09:18:43;3.10;;;1.40;;
76725;SDS011;65651;53.154;17.916;2023-07-08T09:21:40;3.20;;;1.60;;
76725;SDS011;65651;53.154;17.916;2023-07-08T09:24:10;4.10;;;2.00;;
76725;SDS011;65651;53.154;17.916;2023-07-08T09:26:48;2.90;;;1.60;;
76725;SDS011;65651;53.154;17.916;2023-07-08T09:29:18;4.50;;;2.00;;
76725;SDS011;65651;53.154;17.916;2023-07-08T09:31:48;1.70;;;1.30;;
76725;SDS011;65651;53.154;17.916;2023-07-08T09:34:16;2.70;;;1.30;;
76725;SDS011;65651;53.154;17.916;2023-07-08T09:36:51;1.90;;;1.50;;
76725;SDS011;65651;53.154;17.916;2023-07-08T09:39:19;2.40;;;1.90;;
76725;SDS011;65651;53.154;17.916;2023-07-08T09:41:48;7.50;;;2.30;;
76725;SDS011;65651;53.154;17.916;2023-07-08T09:46:57;3.50;;;1.60;;
76725;SDS011;65651;53.154;17.916;2023-07-08T09:49:33;8.10;;;1.60;;
76725;SDS011;65651;53.154;17.916;2023-07-08T09:52:05;2.90;;;1.60;;
76725;SDS011;65651;53.154;17.916;2023-07-08T09:54:32;4.40;;;1.60;;
76725;SDS011;65651;53.154;17.916;2023-07-08T09:57:22;2.60;;;1.60;;
76725;SDS011;65651;53.154;17.916;2023-07-08T09:59:57;3.10;;;1.30;;
76725;SDS011;65651;53.154;17.916;2023-07-08T10:07:47;3.10;;;1.90;;
76725;SDS011;65651;53.154;17.916;2023-07-08T10:10:16;4.10;;;1.30;;
76725;SDS011;65651;53.154;17.916;2023-07-08T10:12:49;2.20;;;1.70;;
76725;SDS011;65651;53.154;17.916;2023-07-08T10:15:45;1.90;;;1.50;;
76725;SDS011;65651;53.154;17.916;2023-07-08T10:18:16;4.60;;;2.10;;
76725;SDS011;65651;53.154;17.916;2023-07-08T10:26:26;2.80;;;1.70;;
76725;SDS011;65651;53.154;17.916;2023-07-08T10:29:04;2.20;;;1.70;;
76725;SDS011;65651;53.154;17.916;2023-07-08T10:31:46;3.90;;;2.40;;
76725;SDS011;65651;53.154;17.916;2023-07-08T10:46:36;3.20;;;2.00;;
76725;SDS011;65651;53.154;17.916;2023-07-08T10:49:31;2.20;;;1.90;;
76725;SDS011;65651;53.154;17.916;2023-07-08T10:52:12;3.50;;;2.00;;
76725;SDS011;65651;53.154;17.916;2023-07-08T10:54:52;3.00;;;2.00;;
76725;SDS011;65651;53.154;17.916;2023-07-08T11:00:24;3.80;;;2.80;;
76725;SDS011;65651;53.154;17.916;2023-07-08T11:03:05;6.40;;;2.90;;
76725;SDS011;65651;53.154;17.916;2023-07-08T11:08:15;3.20;;;2.80;;
76725;SDS011;65651;53.154;17.916;2023-07-08T11:10:56;2.80;;;2.00;;
76725;SDS011;65651;53.154;17.916;2023-07-08T11:13:26;2.80;;;2.30;;
76725;SDS011;65651;53.154;17.916;2023-07-08T11:16:05;2.50;;;2.20;;
76725;SDS011;65651;53.154;17.916;2023-07-08T11:18:40;3.20;;;2.00;;
76725;SDS011;65651;53.154;17.916;2023-07-08T11:21:16;2.60;;;2.00;;
76725;SDS011;65651;53.154;17.916;2023-07-08T11:23:50;2.90;;;2.20;;
76725;SDS011;65651;53.154;17.916;2023-07-08T11:26:28;3.30;;;2.20;;
76725;SDS011;65651;53.154;17.916;2023-07-08T11:29:02;3.10;;;2.30;;
76725;SDS011;65651;53.154;17.916;2023-07-08T11:31:37;2.40;;;1.70;;
76725;SDS011;65651;53.154;17.916;2023-07-08T11:34:05;2.40;;;2.20;;
76725;SDS011;65651;53.154;17.916;2023-07-08T11:36:35;3.80;;;2.40;;
76725;SDS011;65651;53.154;17.916;2023-07-08T11:39:04;2.70;;;1.90;;
76725;SDS011;65651;53.154;17.916;2023-07-08T11:44:57;3.50;;;2.00;;
76725;SDS011;65651;53.154;17.916;2023-07-08T11:50:42;2.20;;;1.80;;
76725;SDS011;65651;53.154;17.916;2023-07-08T11:53:58;3.00;;;2.30;;
76725;SDS011;65651;53.154;17.916;2023-07-08T12:00:22;4.00;;;1.90;;
76725;SDS011;65651;53.154;17.916;2023-07-08T12:03:20;3.00;;;2.10;;
76725;SDS011;65651;53.154;17.916;2023-07-08T12:09:38;5.50;;;2.30;;
76725;SDS011;65651;53.154;17.916;2023-07-08T12:12:35;2.00;;;1.40;;
76725;SDS011;65651;53.154;17.916;2023-07-08T12:15:29;4.40;;;2.10;;
76725;SDS011;65651;53.154;17.916;2023-07-08T12:17:58;4.10;;;2.30;;
76725;SDS011;65651;53.154;17.916;2023-07-08T12:20:32;3.50;;;2.80;;
76725;SDS011;65651;53.154;17.916;2023-07-08T12:23:02;3.00;;;2.30;;
76725;SDS011;65651;53.154;17.916;2023-07-08T12:25:35;3.20;;;2.50;;
76725;SDS011;65651;53.154;17.916;2023-07-08T12:28:03;5.90;;;3.50;;
76725;SDS011;65651;53.154;17.916;2023-07-08T12:30:31;5.60;;;2.60;;
76725;SDS011;65651;53.154;17.916;2023-07-08T12:33:00;7.20;;;4.50;;
76725;SDS011;65651;53.154;17.916;2023-07-08T12:35:29;4.30;;;3.20;;
76725;SDS011;65651;53.154;17.916;2023-07-08T12:38:00;5.40;;;2.20;;
76725;SDS011;65651;53.154;17.916;2023-07-08T12:40:30;4.30;;;2.10;;
76725;SDS011;65651;53.154;17.916;2023-07-08T12:42:58;3.10;;;2.40;;
76725;SDS011;65651;53.154;17.916;2023-07-08T12:45:29;4.10;;;2.60;;
76725;SDS011;65651;53.154;17.916;2023-07-08T12:47:57;4.40;;;2.50;;
76725;SDS011;65651;53.154;17.916;2023-07-08T12:50:25;5.60;;;2.70;;
76725;SDS011;65651;53.154;17.916;2023-07-08T12:52:56;2.50;;;2.20;;
76725;SDS011;65651;53.154;17.916;2023-07-08T12:55:24;4.20;;;3.10;;
76725;SDS011;65651;53.154;17.916;2023-07-08T12:57:52;3.00;;;2.50;;
76725;SDS011;65651;53.154;17.916;2023-07-08T13:00:24;4.60;;;2.90;;
76725;SDS011;65651;53.154;17.916;2023-07-08T13:02:59;4.70;;;2.60;;
76725;SDS011;65651;53.154;17.916;2023-07-08T13:05:33;4.20;;;2.80;;
76725;SDS011;65651;53.154;17.916;2023-07-08T13:08:10;3.80;;;2.10;;
76725;SDS011;65651;53.154;17.916;2023-07-08T13:10:47;3.20;;;2.70;;
76725;SDS011;65651;53.154;17.916;2023-07-08T13:13:17;3.00;;;2.30;;
76725;SDS011;65651;53.154;17.916;2023-07-08T13:15:48;2.80;;;2.20;;
76725;SDS011;65651;53.154;17.916;2023-07-08T13:18:17;3.30;;;2.20;;
76725;SDS011;65651;53.154;17.916;2023-07-08T13:20:47;4.40;;;2.70;;
76725;SDS011;65651;53.154;17.916;2023-07-08T13:23:21;5.40;;;2.40;;
76725;SDS011;65651;53.154;17.916;2023-07-08T13:25:50;2.70;;;2.30;;
76725;SDS011;65651;53.154;17.916;2023-07-08T13:28:22;5.10;;;2.30;;
76725;SDS011;65651;53.154;17.916;2023-07-08T13:30:56;3.70;;;2.70;;
76725;SDS011;65651;53.154;17.916;2023-07-08T13:33:29;2.70;;;2.20;;
76725;SDS011;65651;53.154;17.916;2023-07-08T13:36:01;7.10;;;2.30;;
76725;SDS011;65651;53.154;17.916;2023-07-08T13:38:39;2.90;;;2.50;;
76725;SDS011;65651;53.154;17.916;2023-07-08T13:41:07;2.90;;;2.60;;
76725;SDS011;65651;53.154;17.916;2023-07-08T13:43:39;3.90;;;2.60;;
76725;SDS011;65651;53.154;17.916;2023-07-08T13:49:19;4.80;;;2.30;;
76725;SDS011;65651;53.154;17.916;2023-07-08T13:51:50;3.70;;;2.70;;
76725;SDS011;65651;53.154;17.916;2023-07-08T13:54:32;3.80;;;2.30;;
76725;SDS011;65651;53.154;17.916;2023-07-08T13:57:09;3.60;;;2.20;;
76725;SDS011;65651;53.154;17.916;2023-07-08T13:59:38;3.20;;;2.50;;
76725;SDS011;65651;53.154;17.916;2023-07-08T14:02:13;5.70;;;2.20;;
76725;SDS011;65651;53.154;17.916;2023-07-08T14:04:41;4.40;;;2.50;;
76725;SDS011;65651;53.154;17.916;2023-07-08T14:07:16;4.30;;;2.70;;
76725;SDS011;65651;53.154;17.916;2023-07-08T14:09:45;3.60;;;2.50;;
76725;SDS011;65651;53.154;17.916;2023-07-08T14:12:13;3.60;;;2.80;;
76725;SDS011;65651;53.154;17.916;2023-07-08T14:14:40;3.80;;;2.50;;
76725;SDS011;65651;53.154;17.916;2023-07-08T14:17:12;3.00;;;2.60;;
76725;SDS011;65651;53.154;17.916;2023-07-08T14:19:45;3.30;;;2.60;;
76725;SDS011;65651;53.154;17.916;2023-07-08T14:24:41;4.10;;;2.60;;
76725;SDS011;65651;53.154;17.916;2023-07-08T14:27:09;4.00;;;2.50;;
76725;SDS011;65651;53.154;17.916;2023-07-08T14:29:41;5.30;;;2.90;;
76725;SDS011;65651;53.154;17.916;2023-07-08T14:32:27;5.50;;;2.80;;
76725;SDS011;65651;53.154;17.916;2023-07-08T14:34:58;3.90;;;2.30;;
76725;SDS011;65651;53.154;17.916;2023-07-08T14:37:30;3.20;;;2.40;;
76725;SDS011;65651;53.154;17.916;2023-07-08T14:39:57;4.50;;;2.70;;
76725;SDS011;65651;53.154;17.916;2023-07-08T14:42:27;6.60;;;2.80;;
76725;SDS011;65651;53.154;17.916;2023-07-08T14:44:55;5.20;;;2.90;;
76725;SDS011;65651;53.154;17.916;2023-07-08T14:47:22;4.60;;;2.50;;
76725;SDS011;65651;53.154;17.916;2023-07-08T14:49:50;2.60;;;2.40;;
76725;SDS011;65651;53.154;17.916;2023-07-08T14:52:17;6.80;;;3.00;;
76725;SDS011;65651;53.154;17.916;2023-07-08T14:54:44;4.20;;;2.40;;
76725;SDS011;65651;53.154;17.916;2023-07-08T14:57:12;4.50;;;2.60;;
76725;SDS011;65651;53.154;17.916;2023-07-08T14:59:43;3.80;;;2.70;;
76725;SDS011;65651;53.154;17.916;2023-07-08T15:02:18;2.80;;;2.00;;
76725;SDS011;65651;53.154;17.916;2023-07-08T15:04:47;4.90;;;2.60;;
76725;SDS011;65651;53.154;17.916;2023-07-08T15:07:17;5.20;;;2.50;;
76725;SDS011;65651;53.154;17.916;2023-07-08T15:09:44;3.00;;;2.70;;
76725;SDS011;65651;53.154;17.916;2023-07-08T15:12:12;3.70;;;2.60;;
76725;SDS011;65651;53.154;17.916;2023-07-08T15:14:39;5.70;;;2.10;;
76725;SDS011;65651;53.154;17.916;2023-07-08T15:17:14;4.70;;;2.60;;
76725;SDS011;65651;53.154;17.916;2023-07-08T15:19:46;4.10;;;2.20;;
76725;SDS011;65651;53.154;17.916;2023-07-08T15:22:13;4.10;;;2.30;;
76725;SDS011;65651;53.154;17.916;2023-07-08T15:24:41;2.80;;;2.30;;
76725;SDS011;65651;53.154;17.916;2023-07-08T15:27:10;4.40;;;2.50;;
76725;SDS011;65651;53.154;17.916;2023-07-08T15:29:39;4.60;;;2.10;;
76725;SDS011;65651;53.154;17.916;2023-07-08T15:32:16;5.50;;;2.80;;
76725;SDS011;65651;53.154;17.916;2023-07-08T15:34:47;4.40;;;2.80;;
76725;SDS011;65651;53.154;17.916;2023-07-08T15:37:14;3.50;;;2.40;;
76725;SDS011;65651;53.154;17.916;2023-07-08T15:39:42;4.90;;;2.20;;
76725;SDS011;65651;53.154;17.916;2023-07-08T15:42:10;4.10;;;2.40;;
76725;SDS011;65651;53.154;17.916;2023-07-08T15:44:40;2.00;;;1.60;;
76725;SDS011;65651;53.154;17.916;2023-07-08T15:47:09;3.80;;;2.30;;
76725;SDS011;65651;53.154;17.916;2023-07-08T15:49:40;3.10;;;2.00;;
76725;SDS011;65651;53.154;17.916;2023-07-08T15:52:07;5.40;;;2.40;;
76725;SDS011;65651;53.154;17.916;2023-07-08T15:54:36;2.90;;;2.20;;
76725;SDS011;65651;53.154;17.916;2023-07-08T15:57:05;4.10;;;2.60;;
76725;SDS011;65651;53.154;17.916;2023-07-08T15:59:37;4.10;;;2.40;;
76725;SDS011;65651;53.154;17.916;2023-07-08T16:02:27;5.20;;;2.60;;
76725;SDS011;65651;53.154;17.916;2023-07-08T16:04:57;2.60;;;2.30;;